createdAt,value
2022-08-07T00:02:58.171Z,15.91
2022-08-07T00:05:55.373Z,15.74
2022-08-07T00:08:52.597Z,16.01
2022-08-07T00:11:55.459Z,16.01
2022-08-07T00:14:53.934Z,15.88
2022-08-07T00:17:51.621Z,15.99
2022-08-07T00:20:49.802Z,16.18
2022-08-07T00:23:46.777Z,16.03
2022-08-07T00:26:58.896Z,15.77
2022-08-07T00:30:05.674Z,15.75
2022-08-07T00:33:18.457Z,15.66
2022-08-07T00:36:17.446Z,16.12
2022-08-07T00:39:16.511Z,16.74
2022-08-07T00:42:14.341Z,16.40
2022-08-07T00:45:16.375Z,16.95
2022-08-07T00:48:13.470Z,17.29
2022-08-07T00:51:10.353Z,16.80
2022-08-07T00:54:07.749Z,16.09
2022-08-07T00:57:10.553Z,16.22
2022-08-07T01:00:10.090Z,16.72
2022-08-07T01:03:08.425Z,16.75
2022-08-07T01:06:09.803Z,16.28
2022-08-07T01:09:09.231Z,15.65
2022-08-07T01:12:29.648Z,15.60
2022-08-07T01:15:35.879Z,15.63
2022-08-07T01:18:42.611Z,15.66
2022-08-07T01:21:39.670Z,15.66
2022-08-07T01:24:37.629Z,15.63
2022-08-07T01:27:35.599Z,15.30
2022-08-07T01:30:33.575Z,15.37
2022-08-07T01:33:54.979Z,15.68
2022-08-07T01:36:52.440Z,15.51
2022-08-07T01:40:00.867Z,15.02
2022-08-07T01:43:00.374Z,14.86
2022-08-07T01:46:02.378Z,14.79
2022-08-07T01:49:00.278Z,14.86
2022-08-07T01:52:03.211Z,15.09
2022-08-07T01:55:02.037Z,15.15
2022-08-07T01:58:28.970Z,14.97
2022-08-07T02:02:01.980Z,15.00
2022-08-07T02:04:57.489Z,14.81
2022-08-07T02:07:58.844Z,14.86
2022-08-07T02:11:03.280Z,14.83
2022-08-07T02:14:02.823Z,14.75
2022-08-07T02:17:03.152Z,14.59
2022-08-07T02:20:06.993Z,14.51
2022-08-07T02:23:07.736Z,14.78
2022-08-07T02:26:30.698Z,14.79
2022-08-07T02:29:22.583Z,14.56
2022-08-07T02:32:23.456Z,14.53
2022-08-07T02:36:28.752Z,14.52
2022-08-07T02:38:50.602Z,14.39
2022-08-07T02:41:55.142Z,14.31
2022-08-07T02:44:54.988Z,14.47
2022-08-07T02:47:56.699Z,14.45
2022-08-07T02:51:01.223Z,14.28
2022-08-07T02:54:01.035Z,14.21
2022-08-07T02:57:00.515Z,14.33
2022-08-07T03:00:01.272Z,14.27
2022-08-07T03:03:06.030Z,14.39
2022-08-07T03:06:05.895Z,14.45
2022-08-07T03:09:14.413Z,14.19
2022-08-07T03:12:21.706Z,14.12
2022-08-07T03:15:30.251Z,14.27
2022-08-07T03:18:39.690Z,14.08
2022-08-07T03:21:41.760Z,13.91
2022-08-07T03:24:47.751Z,14.03
2022-08-07T03:28:08.770Z,14.14
2022-08-07T03:31:24.569Z,14.06
2022-08-07T03:34:27.156Z,14.24
2022-08-07T03:37:32.631Z,14.23
2022-08-07T03:40:36.169Z,14.05
2022-08-07T03:43:38.676Z,14.06
2022-08-07T03:47:14.105Z,14.09
2022-08-07T03:50:00.877Z,13.96
2022-08-07T03:53:03.533Z,13.73
2022-08-07T03:56:04.076Z,13.82
2022-08-07T03:59:10.014Z,13.84
2022-08-07T04:02:12.868Z,13.72
2022-08-07T04:05:12.015Z,13.81
2022-08-07T04:08:11.881Z,13.82
2022-08-07T04:12:24.481Z,13.77
2022-08-07T04:14:38.187Z,13.64
2022-08-07T04:18:56.894Z,13.76
2022-08-07T04:20:55.142Z,13.80
2022-08-07T04:24:05.723Z,13.81
2022-08-07T04:27:05.778Z,13.84
2022-08-07T04:30:21.709Z,13.87
2022-08-07T04:33:35.338Z,13.91
2022-08-07T04:36:34.441Z,13.83
2022-08-07T04:39:35.948Z,13.95
2022-08-07T04:42:34.788Z,13.91
2022-08-07T04:46:01.641Z,13.80
2022-08-07T04:49:25.509Z,13.82
2022-08-07T04:52:51.426Z,13.98
2022-08-07T04:58:11.332Z,14.03
2022-08-07T05:00:12.344Z,14.08
2022-08-07T05:02:53.189Z,14.12
2022-08-07T05:05:58.227Z,14.24
2022-08-07T05:09:09.712Z,14.37
2022-08-07T05:12:15.514Z,14.41
2022-08-07T05:15:27.316Z,14.77
2022-08-07T05:18:32.125Z,15.57
2022-08-07T05:22:00.677Z,16.01
2022-08-07T05:24:48.749Z,16.33
2022-08-07T05:28:03.239Z,16.41
2022-08-07T05:31:05.075Z,16.40
2022-08-07T05:34:05.704Z,16.50
2022-08-07T05:37:08.610Z,16.40
2022-08-07T05:40:18.782Z,16.35
2022-08-07T05:43:18.569Z,16.35
2022-08-07T05:46:17.217Z,16.20
2022-08-07T05:49:15.645Z,16.14
2022-08-07T05:52:20.158Z,16.20
2022-08-07T05:55:18.699Z,16.51
2022-08-07T05:58:16.714Z,16.36
2022-08-07T06:01:15.144Z,16.34
2022-08-07T06:04:15.282Z,16.66
2022-08-07T06:07:22.778Z,16.82
2022-08-07T06:10:21.765Z,16.98
2022-08-07T06:14:11.988Z,17.04
2022-08-07T06:16:38.849Z,17.08
2022-08-07T06:19:57.655Z,17.27
2022-08-07T06:23:25.216Z,17.41
2022-08-07T06:26:14.808Z,17.52
2022-08-07T06:29:12.592Z,17.40
2022-08-07T06:32:10.030Z,16.98
2022-08-07T06:35:17.719Z,16.94
2022-08-07T06:38:20.483Z,16.91
2022-08-07T06:42:00.504Z,16.99
2022-08-07T06:45:21.257Z,17.04
2022-08-07T06:48:25.431Z,17.26
2022-08-07T06:51:33.579Z,17.19
2022-08-07T06:55:33.829Z,17.43
2022-08-07T06:57:59.287Z,17.62
2022-08-07T07:00:59.686Z,17.46
2022-08-07T07:04:07.019Z,17.59
2022-08-07T07:07:19.366Z,17.94
2022-08-07T07:10:35.384Z,18.16
2022-08-07T07:13:58.440Z,18.12
2022-08-07T07:16:59.318Z,18.06
2022-08-07T07:19:59.169Z,17.93
2022-08-07T07:24:05.991Z,18.23
2022-08-07T07:26:35.622Z,18.22
2022-08-07T07:29:55.815Z,18.38
2022-08-07T07:32:54.754Z,18.43
2022-08-07T07:36:04.430Z,18.55
2022-08-07T07:39:03.192Z,18.57
2022-08-07T07:42:13.037Z,18.64
2022-08-07T07:45:11.195Z,18.83
2022-08-07T07:48:35.136Z,18.82
2022-08-07T07:51:32.141Z,18.85
2022-08-07T07:54:50.855Z,18.98
2022-08-07T07:57:53.770Z,19.29
2022-08-07T08:00:55.035Z,19.42
2022-08-07T08:04:05.820Z,19.57
2022-08-07T08:07:07.743Z,19.76
2022-08-07T08:10:05.873Z,19.71
2022-08-07T08:13:03.006Z,19.60
2022-08-07T08:16:01.932Z,19.72
2022-08-07T08:19:00.442Z,19.78
2022-08-07T08:22:32.652Z,19.85
2022-08-07T08:25:50.930Z,19.77
2022-08-07T08:28:48.027Z,19.63
2022-08-07T08:31:59.296Z,19.82
2022-08-07T08:35:12.619Z,19.96
2022-08-07T08:38:13.998Z,20.06
2022-08-07T08:41:31.445Z,20.07
2022-08-07T08:45:06.051Z,19.96
2022-08-07T08:48:32.445Z,19.93
2022-08-07T08:52:14.208Z,20.01
2022-08-07T08:55:55.143Z,20.44
2022-08-07T08:59:48.590Z,20.69
2022-08-07T09:02:56.029Z,20.89
2022-08-07T09:05:58.978Z,21.05
2022-08-07T09:09:09.704Z,20.84
2022-08-07T09:12:31.572Z,21.12
2022-08-07T09:16:24.186Z,21.24
2022-08-07T09:19:51.753Z,21.52
2022-08-07T09:24:30.994Z,21.05
2022-08-07T09:25:59.029Z,21.32
2022-08-07T09:30:01.427Z,21.42
2022-08-07T09:32:29.141Z,21.78
2022-08-07T09:36:03.839Z,21.94
2022-08-07T09:39:54.303Z,21.93
2022-08-07T09:42:58.672Z,22.09
2022-08-07T09:47:55.261Z,21.96
2022-08-07T09:50:19.189Z,21.81
2022-08-07T09:53:18.417Z,21.71
2022-08-07T09:56:37.436Z,21.43
2022-08-07T09:59:44.740Z,21.77
2022-08-07T10:03:07.872Z,22.09
2022-08-07T10:06:24.548Z,22.36
2022-08-07T10:10:00.683Z,22.60
2022-08-07T10:13:55.236Z,22.68
2022-08-07T10:17:14.065Z,22.75
2022-08-07T10:20:30.730Z,22.94
2022-08-07T10:24:08.580Z,23.11
2022-08-07T10:27:46.987Z,22.87
2022-08-07T10:31:11.155Z,22.86
2022-08-07T10:34:36.237Z,22.67
2022-08-07T10:38:09.499Z,22.71
2022-08-07T10:41:46.588Z,22.53
2022-08-07T10:44:59.788Z,22.68
2022-08-07T10:48:24.917Z,22.90
2022-08-07T10:51:57.770Z,23.10
2022-08-07T10:55:27.142Z,23.07
2022-08-07T10:58:59.616Z,22.96
2022-08-07T11:02:05.006Z,23.03
2022-08-07T11:05:35.677Z,23.03
2022-08-07T11:08:52.927Z,23.13
2022-08-07T11:12:01.441Z,23.08
2022-08-07T11:15:03.272Z,22.82
2022-08-07T11:18:25.377Z,22.63
2022-08-07T11:21:43.102Z,22.82
2022-08-07T11:24:45.987Z,22.94
2022-08-07T11:28:03.222Z,22.72
2022-08-07T11:31:22.082Z,22.67
2022-08-07T11:34:24.874Z,23.12
2022-08-07T11:38:08.889Z,23.45
2022-08-07T11:41:08.280Z,23.80
2022-08-07T11:44:38.991Z,23.61
2022-08-07T11:47:59.167Z,23.07
2022-08-07T11:51:41.172Z,22.94
2022-08-07T11:55:02.773Z,22.87
2022-08-07T11:58:36.172Z,23.09
2022-08-07T12:01:59.679Z,23.06
2022-08-07T12:05:15.660Z,23.46
2022-08-07T12:08:44.334Z,23.71
2022-08-07T12:12:10.205Z,23.82
2022-08-07T12:16:05.079Z,24.03
2022-08-07T12:18:56.321Z,23.85
2022-08-07T12:22:37.790Z,23.77
2022-08-07T12:26:05.447Z,23.68
2022-08-07T12:29:37.627Z,23.71
2022-08-07T12:32:45.264Z,23.92
2022-08-07T12:35:57.811Z,24.12
2022-08-07T12:38:57.268Z,24.31
2022-08-07T12:41:54.931Z,24.32
2022-08-07T12:44:52.029Z,24.28
2022-08-07T12:47:57.820Z,24.30
2022-08-07T12:51:17.598Z,24.20
2022-08-07T12:54:37.820Z,24.22
2022-08-07T12:57:39.088Z,24.38
2022-08-07T13:01:00.367Z,24.43
2022-08-07T13:04:32.615Z,24.41
2022-08-07T13:08:22.648Z,24.31
2022-08-07T13:12:02.443Z,24.51
2022-08-07T13:15:37.216Z,24.36
2022-08-07T13:18:38.804Z,24.44
2022-08-07T13:21:57.288Z,24.53
2022-08-07T13:25:09.494Z,24.74
2022-08-07T13:28:18.282Z,24.71
2022-08-07T13:32:00.187Z,24.63
2022-08-07T13:36:00.246Z,24.73
2022-08-07T13:39:13.171Z,24.66
2022-08-07T13:42:24.809Z,24.69
2022-08-07T13:46:11.712Z,24.73
2022-08-07T13:48:51.892Z,24.80
2022-08-07T13:52:04.851Z,24.75
2022-08-07T13:55:26.268Z,24.67
2022-08-07T13:58:56.633Z,24.28
2022-08-07T14:02:03.713Z,24.04
2022-08-07T14:05:12.093Z,24.01
2022-08-07T14:08:09.333Z,23.87
2022-08-07T14:11:17.513Z,23.91
2022-08-07T14:14:16.612Z,24.03
2022-08-07T14:18:15.506Z,24.15
2022-08-07T14:20:41.051Z,24.18
2022-08-07T14:24:00.304Z,24.56
2022-08-07T14:27:00.169Z,24.60
2022-08-07T14:30:07.504Z,24.80
2022-08-07T14:33:08.183Z,24.61
2022-08-07T14:36:08.786Z,24.84
2022-08-07T14:39:06.541Z,24.92
2022-08-07T14:42:18.610Z,25.00
2022-08-07T14:45:21.170Z,25.00
2022-08-07T14:48:37.110Z,24.79
2022-08-07T14:52:02.833Z,24.70
2022-08-07T14:54:54.238Z,24.79
2022-08-07T14:57:54.886Z,25.07
2022-08-07T15:00:55.933Z,25.47
2022-08-07T15:04:05.344Z,25.46
2022-08-07T15:07:03.413Z,25.51
2022-08-07T15:10:26.267Z,25.26
2022-08-07T15:13:25.526Z,25.09
2022-08-07T15:16:55.042Z,25.46
2022-08-07T15:20:33.723Z,25.40
2022-08-07T15:25:04.026Z,25.38
2022-08-07T15:26:44.981Z,25.33
2022-08-07T15:33:03.959Z,25.26
2022-08-07T15:36:05.257Z,25.28
2022-08-07T15:39:04.843Z,25.36
2022-08-07T15:42:43.486Z,25.49
2022-08-07T15:49:03.805Z,25.91
2022-08-07T15:52:06.899Z,26.05
2022-08-07T15:55:11.423Z,25.99
2022-08-07T15:58:19.291Z,25.88
2022-08-07T16:01:38.984Z,25.94
2022-08-07T16:04:37.364Z,26.10
2022-08-07T16:08:30.620Z,26.11
2022-08-07T16:11:04.748Z,26.03
2022-08-07T16:14:37.761Z,25.88
2022-08-07T16:18:02.732Z,25.73
2022-08-07T16:22:01.488Z,25.77
2022-08-07T16:24:57.026Z,25.83
2022-08-07T16:28:11.465Z,26.04
2022-08-07T16:31:51.312Z,26.12
2022-08-07T16:35:56.337Z,26.28
2022-08-07T16:39:01.004Z,26.38
2022-08-07T16:42:15.627Z,26.38
2022-08-07T16:46:33.514Z,26.34
2022-08-07T16:50:28.885Z,26.39
2022-08-07T16:53:14.801Z,26.34
2022-08-07T16:56:44.848Z,26.07
2022-08-07T17:00:15.086Z,25.80
2022-08-07T17:03:17.250Z,25.64
2022-08-07T17:06:31.398Z,25.89
2022-08-07T17:10:06.764Z,25.96
2022-08-07T17:13:20.337Z,26.30
2022-08-07T17:16:29.323Z,26.34
2022-08-07T17:20:02.310Z,26.46
2022-08-07T17:23:01.605Z,26.50
2022-08-07T17:26:23.928Z,26.54
2022-08-07T17:30:15.641Z,26.32
2022-08-07T17:33:00.736Z,26.13
2022-08-07T17:36:20.280Z,26.15
2022-08-07T17:39:22.227Z,26.06
2022-08-07T17:42:59.342Z,25.88
2022-08-07T17:46:09.247Z,25.83
2022-08-07T17:49:44.816Z,25.95
2022-08-07T17:52:59.074Z,25.71
2022-08-07T17:56:06.429Z,25.38
2022-08-07T17:59:35.781Z,25.15
2022-08-07T18:02:40.100Z,24.97
2022-08-07T18:06:16.814Z,24.91
2022-08-07T18:10:04.779Z,24.59
2022-08-07T18:13:01.474Z,24.08
2022-08-07T18:16:10.127Z,23.99
2022-08-07T18:21:11.945Z,23.50
2022-08-07T18:23:02.355Z,22.94
2022-08-07T18:26:05.417Z,22.74
2022-08-07T18:30:08.389Z,22.63
2022-08-07T18:32:54.044Z,22.60
2022-08-07T18:36:14.073Z,22.60
2022-08-07T18:40:06.916Z,22.58
2022-08-07T18:42:57.435Z,22.64
2022-08-07T18:46:25.006Z,22.70
2022-08-07T18:50:32.401Z,22.70
2022-08-07T18:52:53.777Z,22.50
2022-08-07T18:56:30.809Z,22.16
2022-08-07T18:59:58.520Z,22.02
2022-08-07T19:03:12.303Z,21.92
2022-08-07T19:06:33.722Z,21.91
2022-08-07T19:09:57.510Z,21.79
2022-08-07T19:13:11.705Z,21.66
2022-08-07T19:17:06.088Z,21.61
2022-08-07T19:20:03.866Z,21.59
2022-08-07T19:23:18.454Z,21.44
2022-08-07T19:26:24.369Z,21.27
2022-08-07T19:31:01.229Z,21.37
2022-08-07T19:32:46.181Z,21.38
2022-08-07T19:35:44.972Z,21.31
2022-08-07T19:38:53.007Z,21.40
2022-08-07T19:42:05.852Z,21.52
2022-08-07T19:45:08.698Z,21.59
2022-08-07T19:48:06.623Z,21.62
2022-08-07T19:51:19.911Z,21.60
2022-08-07T19:54:29.817Z,21.71
2022-08-07T19:58:02.107Z,21.68
2022-08-07T20:00:56.371Z,21.55
2022-08-07T20:03:53.821Z,21.43
2022-08-07T20:06:52.775Z,21.29
2022-08-07T20:10:37.865Z,21.31
2022-08-07T20:13:23.441Z,21.33
2022-08-07T20:16:35.890Z,21.09
2022-08-07T20:19:49.665Z,20.92
2022-08-07T20:22:51.055Z,20.74
2022-08-07T20:25:50.898Z,20.74
2022-08-07T20:28:51.342Z,20.60
2022-08-07T20:31:48.632Z,21.01
2022-08-07T20:34:51.147Z,21.41
2022-08-07T20:37:58.271Z,21.24
2022-08-07T20:41:03.961Z,21.42
2022-08-07T20:44:02.591Z,21.19
2022-08-07T20:47:05.923Z,20.76
2022-08-07T20:50:07.262Z,20.54
2022-08-07T20:53:05.623Z,20.35
2022-08-07T20:56:03.175Z,20.25
2022-08-07T20:59:02.917Z,20.01
2022-08-07T21:02:04.406Z,19.90
2022-08-07T21:05:18.406Z,19.70
2022-08-07T21:08:41.164Z,19.67
2022-08-07T21:11:46.321Z,19.61
2022-08-07T21:14:53.606Z,19.78
2022-08-07T21:18:09.629Z,19.64
2022-08-07T21:21:08.777Z,19.51
2022-08-07T21:24:10.204Z,19.54
2022-08-07T21:27:26.725Z,19.62
2022-08-07T21:31:10.455Z,19.33
2022-08-07T21:34:13.302Z,19.36
2022-08-07T21:37:22.653Z,19.38
2022-08-07T21:40:29.051Z,19.35
2022-08-07T21:43:55.498Z,19.20
2022-08-07T21:46:57.865Z,19.18
2022-08-07T21:50:01.813Z,19.06
2022-08-07T21:53:13.053Z,19.07
2022-08-07T21:56:36.242Z,18.89
2022-08-07T22:00:05.225Z,18.74
2022-08-07T22:03:30.929Z,18.81
2022-08-07T22:06:31.511Z,19.02
2022-08-07T22:09:37.971Z,19.03
2022-08-07T22:12:52.065Z,19.13
2022-08-07T22:16:42.993Z,19.68
2022-08-07T22:19:29.898Z,19.80
2022-08-07T22:22:36.734Z,20.28
2022-08-07T22:25:53.803Z,20.08
2022-08-07T22:29:08.985Z,19.33
2022-08-07T22:33:01.450Z,18.86
2022-08-07T22:36:00.978Z,18.68
2022-08-07T22:39:29.800Z,18.67
2022-08-07T22:42:33.809Z,18.81
2022-08-07T22:46:43.056Z,19.25
2022-08-07T22:49:23.323Z,19.07
2022-08-07T22:52:37.702Z,18.68
2022-08-07T22:55:48.479Z,18.39
2022-08-07T22:59:02.388Z,18.35
2022-08-07T23:02:27.505Z,18.38
2022-08-07T23:06:07.182Z,18.30
2022-08-07T23:10:05.005Z,18.33
2022-08-07T23:12:48.756Z,18.84
2022-08-07T23:16:43.308Z,18.95
2022-08-07T23:20:40.548Z,18.89
2022-08-07T23:24:11.831Z,18.35
2022-08-07T23:27:35.468Z,18.28
2022-08-07T23:31:18.776Z,18.84
2022-08-07T23:34:39.962Z,18.71
2022-08-07T23:38:19.271Z,18.53
2022-08-07T23:42:04.418Z,18.39
2022-08-07T23:45:15.043Z,18.31
2022-08-07T23:49:02.276Z,18.17
2022-08-07T23:53:01.141Z,18.17
2022-08-07T23:55:52.025Z,18.18
